Strona główna
METAR-TAF:

METAR-TAF

Lotnisko :

Port lotniczy Bata

Bata, Gwinea Równikowa

Szerokość geograficzna: 1-54-15N, Długość geograficzna: 9-48-15E, wysokość: 4 m

Aktualna obserwacja pogody

Raport powstał 13 godziny i 18 minut temu, godzina 05:00 UTC
Wiatr 13 kt od południe
Temperatura 24°C
Wilgotność 89%
Ciśnienie 1013 hPa
Widzialność 10 km lub więcej
Rozproszone chmury na wysokości 1000 ft

METAR: FGBT 200500Z 17013KT 9999 SCT010 24/22 Q1013

czas: 19:18 (18:18 UTC)

Prognoza

Raport powstał 1 godzina i 18 minut temu, godzina 17:00 UTC
Prognoza ważna od 20 godzina 18 UTC do 21 godzina 18 UTC
Wiatr 8 kt od południowo-południowy zachód
Widzialność 10 km lub więcej
Rozproszone chmury na wysokości 1000 ft

TAF: FGBT 201700Z 2018/2118 21008KT 9999 SCT010

Obserwacja i prognoza pogody dla ponad 4000 lotnisk (raport METAR i TAF).

Dostępne stacje oznaczono żółtymi i czerwonymi punktami na mapie.

Najedź kursorem aby zobaczyć nazwę stacji.

Kliknij aby zobaczyć obserwacje i prognozy pogody.

Aby zmienić mapę: kliknij na zielony przycisk z czarnym krzyżykiem, aby powiększyć; na zielony przycisk z myślnikiem, aby pomniejszyć; na zielone strzałki, aby przejść do map sąsiednich.


METAR-TAF: